createdAt,value
2023-08-23T04:02:34.248Z,5.88
2023-08-23T04:05:03.462Z,5.90
2023-08-23T04:07:30.054Z,6.03
2023-08-23T04:09:56.663Z,6.43
2023-08-23T04:12:23.844Z,6.90
2023-08-23T04:14:51.335Z,6.32
2023-08-23T04:17:17.959Z,6.47
2023-08-23T04:19:44.609Z,6.10
2023-08-23T04:22:11.205Z,6.60
2023-08-23T04:24:37.790Z,6.00
2023-08-23T04:27:05.313Z,6.60
2023-08-23T04:29:32.683Z,6.00
2023-08-23T04:31:59.563Z,6.22
2023-08-23T04:34:26.433Z,6.28
2023-08-23T04:36:53.724Z,5.90
2023-08-23T04:39:20.310Z,6.18
2023-08-23T04:41:46.891Z,6.03
2023-08-23T04:44:13.796Z,6.13
2023-08-23T04:46:40.412Z,6.40
2023-08-23T04:49:06.972Z,6.10
2023-08-23T04:51:33.521Z,6.15
2023-08-23T04:54:00.236Z,6.30
2023-08-23T04:56:27.032Z,6.60
2023-08-23T04:58:54.359Z,5.85
2023-08-23T05:01:21.045Z,6.60
2023-08-23T05:03:48.030Z,6.60
2023-08-23T05:06:14.586Z,5.90
2023-08-23T05:08:41.323Z,6.22
2023-08-23T05:11:08.498Z,6.78
2023-08-23T05:13:35.813Z,6.28
2023-08-23T05:16:02.485Z,6.30
2023-08-23T05:18:29.546Z,6.17
2023-08-23T05:20:58.704Z,6.20
2023-08-23T05:23:25.551Z,5.88
2023-08-23T05:25:53.784Z,6.25
2023-08-23T05:28:21.147Z,6.53
2023-08-23T05:30:48.886Z,6.03
2023-08-23T05:33:15.850Z,6.10
2023-08-23T05:35:44.061Z,5.85
2023-08-23T05:38:11.464Z,6.82
2023-08-23T05:40:39.052Z,6.28
2023-08-23T05:43:07.350Z,6.47
2023-08-23T05:45:34.466Z,6.72
2023-08-23T05:48:01.615Z,7.03
2023-08-23T05:50:29.018Z,6.95
2023-08-23T05:52:56.103Z,8.25
2023-08-23T05:55:23.198Z,8.13
2023-08-23T05:57:50.237Z,7.63
2023-08-23T06:00:17.467Z,7.95
2023-08-23T06:02:45.568Z,8.05
2023-08-23T06:05:13.019Z,7.95
2023-08-23T06:07:40.029Z,8.53
2023-08-23T06:10:07.544Z,9.13
2023-08-23T06:12:34.911Z,9.10
2023-08-23T06:15:01.842Z,9.32
2023-08-23T06:17:32.519Z,9.30
2023-08-23T06:19:59.178Z,9.40
2023-08-23T06:22:26.622Z,10.00
2023-08-23T06:24:53.985Z,9.93
2023-08-23T06:27:20.627Z,10.25
2023-08-23T06:29:47.281Z,9.85
2023-08-23T06:32:13.928Z,10.37
2023-08-23T06:34:41.010Z,9.95
2023-08-23T06:37:09.326Z,9.85
2023-08-23T06:39:36.014Z,9.27
2023-08-23T06:42:02.846Z,10.00
2023-08-23T06:44:31.184Z,9.80
2023-08-23T06:46:57.924Z,9.95
2023-08-23T06:49:24.538Z,9.80
2023-08-23T06:51:51.131Z,10.45
2023-08-23T06:54:17.733Z,9.90
2023-08-23T06:56:44.348Z,9.53
2023-08-23T06:59:11.075Z,9.45
2023-08-23T07:01:37.670Z,10.00
2023-08-23T07:04:04.544Z,9.80
2023-08-23T07:06:33.313Z,10.45
2023-08-23T07:09:00.201Z,11.13
2023-08-23T07:11:26.947Z,10.95
2023-08-23T07:13:53.540Z,11.18
2023-08-23T07:16:20.320Z,10.30
2023-08-23T07:18:46.939Z,11.40
2023-08-23T07:21:13.656Z,11.20
2023-08-23T07:23:41.928Z,11.43
2023-08-23T07:26:10.582Z,11.43
2023-08-23T07:28:38.282Z,10.57
2023-08-23T07:31:05.034Z,11.27
2023-08-23T07:33:31.766Z,11.23
2023-08-23T07:36:00.153Z,11.63
2023-08-23T07:38:27.827Z,10.10
2023-08-23T07:40:58.657Z,10.68
2023-08-23T07:43:25.881Z,11.52
2023-08-23T07:45:54.943Z,9.80
2023-08-23T07:48:23.728Z,9.82
2023-08-23T07:50:54.494Z,9.50
2023-08-23T07:53:21.058Z,9.60
2023-08-23T07:55:47.760Z,9.43
2023-08-23T07:58:15.289Z,8.70
2023-08-23T08:00:42.218Z,9.27
2023-08-23T08:03:10.478Z,10.40
2023-08-23T08:05:37.819Z,9.88
2023-08-23T08:08:08.534Z,9.00
2023-08-23T08:10:36.559Z,8.73
2023-08-23T08:13:03.958Z,9.05
2023-08-23T08:15:32.245Z,8.50
2023-08-23T08:17:58.881Z,8.98
2023-08-23T08:20:26.317Z,8.90
2023-08-23T08:22:53.647Z,9.50
2023-08-23T08:25:20.981Z,8.68
2023-08-23T08:27:48.353Z,9.05
2023-08-23T08:30:15.619Z,8.52
2023-08-23T08:32:42.477Z,7.75
2023-08-23T08:35:10.339Z,7.30
2023-08-23T08:37:38.055Z,6.90
2023-08-23T08:40:05.255Z,6.35
2023-08-23T08:42:32.834Z,7.10
2023-08-23T08:45:02.478Z,7.00
2023-08-23T08:47:29.715Z,7.20
2023-08-23T08:49:56.797Z,7.80
2023-08-23T08:52:26.472Z,7.63
2023-08-23T08:54:54.750Z,7.93
2023-08-23T08:57:24.144Z,7.68
2023-08-23T08:59:51.646Z,7.50
2023-08-23T09:02:20.013Z,7.63
2023-08-23T09:04:47.755Z,8.25
2023-08-23T09:07:15.250Z,7.43
2023-08-23T09:09:43.630Z,7.05
2023-08-23T09:12:11.236Z,6.53
2023-08-23T09:14:40.772Z,5.88
2023-08-23T09:17:09.213Z,5.35
2023-08-23T09:19:37.395Z,5.93
2023-08-23T09:22:06.044Z,5.60
2023-08-23T09:24:33.215Z,6.10
2023-08-23T09:27:00.019Z,5.57
2023-08-23T09:29:26.910Z,5.63
2023-08-23T09:31:53.545Z,4.82
2023-08-23T09:34:20.233Z,5.70
2023-08-23T09:36:48.219Z,5.93
2023-08-23T09:39:14.926Z,6.55
2023-08-23T09:41:59.244Z,6.95
2023-08-23T09:44:30.426Z,6.50
2023-08-23T09:47:01.314Z,6.25
2023-08-23T09:49:33.355Z,6.60
2023-08-23T09:52:02.525Z,6.68
2023-08-23T09:55:12.900Z,6.40
2023-08-23T09:57:43.280Z,7.60
2023-08-23T10:00:10.930Z,6.78
2023-08-23T10:02:38.517Z,7.33
2023-08-23T10:05:08.277Z,7.25
2023-08-23T10:07:37.024Z,8.15
2023-08-23T10:10:07.264Z,7.82
2023-08-23T10:12:38.077Z,6.97
2023-08-23T10:15:06.100Z,8.70
2023-08-23T10:17:34.199Z,8.52
2023-08-23T10:20:08.637Z,9.15
2023-08-23T10:22:36.523Z,7.40
2023-08-23T10:25:14.113Z,7.68
2023-08-23T10:27:40.697Z,8.57
2023-08-23T10:30:20.062Z,7.95
2023-08-23T10:32:47.986Z,8.85
2023-08-23T10:35:32.729Z,8.35
2023-08-23T10:37:59.612Z,7.97
2023-08-23T10:40:30.241Z,7.80
2023-08-23T10:42:57.410Z,7.78
2023-08-23T10:45:25.513Z,6.90
2023-08-23T10:47:53.066Z,5.60
2023-08-23T10:50:22.475Z,4.50
2023-08-23T10:52:52.209Z,5.00
2023-08-23T10:55:19.088Z,4.80
2023-08-23T10:57:46.420Z,3.97
2023-08-23T11:00:14.239Z,4.68
2023-08-23T11:02:41.022Z,4.70
2023-08-23T11:05:08.151Z,5.47
2023-08-23T11:07:36.217Z,6.50
2023-08-23T11:10:03.012Z,4.72
2023-08-23T11:12:29.919Z,5.80
2023-08-23T11:14:58.200Z,4.78
2023-08-23T11:17:24.869Z,8.03
2023-08-23T11:19:51.677Z,5.88
2023-08-23T11:22:18.820Z,6.35
2023-08-23T11:24:47.699Z,5.97
2023-08-23T11:27:14.785Z,8.68
2023-08-23T11:29:44.948Z,8.80
2023-08-23T11:32:14.555Z,7.95
2023-08-23T11:34:41.133Z,8.73
2023-08-23T11:37:09.002Z,10.38
2023-08-23T11:39:35.790Z,11.00
2023-08-23T11:42:02.475Z,8.73
2023-08-23T11:44:29.414Z,9.40
2023-08-23T11:46:58.329Z,9.82
2023-08-23T11:49:25.592Z,8.27
2023-08-23T11:51:53.288Z,7.00
2023-08-23T11:54:21.237Z,4.70
2023-08-23T11:56:47.847Z,6.63
2023-08-23T11:59:14.993Z,8.43
2023-08-23T12:01:45.611Z,7.03
2023-08-23T12:04:13.259Z,7.03
2023-08-23T12:06:43.819Z,6.17
2023-08-23T12:09:12.090Z,5.32
2023-08-23T12:11:39.846Z,5.00
2023-08-23T12:14:08.035Z,7.80
2023-08-23T12:16:35.869Z,6.30
2023-08-23T12:19:07.177Z,6.20
2023-08-23T12:21:41.287Z,5.47
2023-08-23T12:24:08.318Z,5.60
2023-08-23T12:26:35.176Z,6.30
2023-08-23T12:29:02.414Z,5.40
2023-08-23T12:31:29.266Z,4.17
2023-08-23T12:33:56.177Z,4.35
2023-08-23T12:36:23.413Z,5.68
2023-08-23T12:38:50.497Z,4.97
2023-08-23T12:41:17.341Z,4.72
2023-08-23T12:43:44.486Z,4.00
2023-08-23T12:46:11.496Z,3.63
2023-08-23T12:48:39.650Z,4.47
2023-08-23T12:51:06.583Z,3.45
2023-08-23T12:53:33.270Z,3.40
2023-08-23T12:55:59.950Z,3.67
2023-08-23T12:58:26.597Z,4.28
2023-08-23T13:00:53.512Z,3.95
2023-08-23T13:03:23.147Z,4.47
2023-08-23T13:05:49.882Z,3.88
2023-08-23T13:08:16.493Z,3.60
2023-08-23T13:10:43.314Z,3.90
2023-08-23T13:13:09.955Z,4.07
2023-08-23T13:15:36.957Z,3.67
2023-08-23T13:18:04.685Z,3.60
2023-08-23T13:20:31.348Z,3.78
2023-08-23T13:22:58.633Z,4.73
2023-08-23T13:25:25.755Z,4.80
2023-08-23T13:27:52.682Z,4.10
2023-08-23T13:30:19.454Z,3.75
2023-08-23T13:32:46.076Z,3.80
2023-08-23T13:35:13.845Z,4.60
2023-08-23T13:37:40.554Z,4.00
2023-08-23T13:40:10.001Z,3.70
2023-08-23T13:42:40.188Z,3.85
2023-08-23T13:45:09.357Z,3.45
2023-08-23T13:47:37.254Z,3.40
2023-08-23T13:50:05.966Z,3.45
2023-08-23T13:52:32.875Z,3.83
2023-08-23T13:55:00.207Z,4.50
2023-08-23T13:57:27.555Z,4.28
2023-08-23T13:59:54.100Z,4.50
2023-08-23T14:02:21.156Z,3.88
2023-08-23T14:04:47.786Z,3.85
2023-08-23T14:07:16.364Z,3.67
2023-08-23T14:09:43.257Z,3.97
2023-08-23T14:12:10.280Z,3.80
2023-08-23T14:14:37.442Z,3.50
2023-08-23T14:17:04.593Z,3.28
2023-08-23T14:19:32.907Z,2.80
2023-08-23T14:22:00.118Z,2.90
2023-08-23T14:24:28.293Z,2.63
2023-08-23T14:26:55.628Z,2.45
2023-08-23T14:29:22.944Z,2.20
2023-08-23T14:31:49.939Z,2.50
2023-08-23T14:34:16.991Z,2.60
2023-08-23T14:36:44.858Z,2.80
2023-08-23T14:39:14.339Z,2.50
2023-08-23T14:41:41.212Z,2.83
2023-08-23T14:44:07.925Z,2.65
2023-08-23T14:46:34.643Z,2.50
2023-08-23T14:49:01.294Z,2.70
2023-08-23T14:51:27.871Z,2.45
2023-08-23T14:53:55.288Z,3.10
2023-08-23T14:56:21.866Z,2.60
2023-08-23T14:58:48.543Z,3.15
2023-08-23T15:01:15.487Z,3.07
2023-08-23T15:03:42.580Z,2.97
2023-08-23T15:06:09.208Z,3.05
2023-08-23T15:08:36.535Z,3.00
2023-08-23T15:11:03.628Z,2.47
2023-08-23T15:13:31.316Z,3.00
2023-08-23T15:15:59.402Z,3.10
2023-08-23T15:18:29.949Z,2.60
2023-08-23T15:20:56.917Z,3.53
2023-08-23T15:23:23.941Z,2.97
2023-08-23T15:25:50.607Z,3.13
2023-08-23T15:28:17.186Z,3.33
2023-08-23T15:30:44.049Z,2.83
2023-08-23T15:33:10.764Z,3.08
2023-08-23T15:35:37.628Z,3.13
2023-08-23T15:38:04.480Z,2.90
2023-08-23T15:40:31.342Z,3.28
2023-08-23T15:42:58.173Z,2.72
2023-08-23T15:45:24.894Z,2.75
2023-08-23T15:47:53.933Z,2.83
2023-08-23T15:50:24.619Z,3.30
2023-08-23T15:52:51.337Z,3.67
2023-08-23T15:55:18.128Z,2.63
2023-08-23T15:57:45.242Z,2.90
2023-08-23T16:00:13.218Z,2.83
2023-08-23T16:02:40.186Z,2.50
2023-08-23T16:05:07.108Z,3.28
2023-08-23T16:07:33.927Z,2.67
2023-08-23T16:10:00.655Z,2.80
2023-08-23T16:12:27.276Z,2.80
2023-08-23T16:14:54.167Z,2.70
2023-08-23T16:17:21.093Z,2.70
2023-08-23T16:19:47.722Z,2.50
2023-08-23T16:22:14.338Z,2.53
2023-08-23T16:24:42.980Z,2.60
2023-08-23T16:27:09.551Z,2.60
2023-08-23T16:29:36.146Z,2.80
2023-08-23T16:32:02.858Z,2.30
2023-08-23T16:34:30.008Z,2.45
2023-08-23T16:36:56.773Z,4.05
2023-08-23T16:39:24.277Z,22.67
2023-08-23T16:41:53.403Z,3.92
2023-08-23T16:44:20.426Z,2.53
2023-08-23T16:46:51.633Z,2.60
2023-08-23T16:49:18.826Z,2.67
2023-08-23T16:51:45.464Z,2.60
2023-08-23T16:54:13.090Z,2.20
2023-08-23T16:56:39.724Z,2.28
2023-08-23T16:59:06.323Z,2.45
2023-08-23T17:01:33.398Z,2.10
2023-08-23T17:04:00.095Z,2.13
2023-08-23T17:06:27.625Z,2.15
2023-08-23T17:08:54.348Z,2.22
2023-08-23T17:11:21.270Z,2.38
2023-08-23T17:13:47.829Z,2.00
2023-08-23T17:16:14.609Z,1.90
2023-08-23T17:18:41.263Z,2.30
2023-08-23T17:21:08.230Z,2.10
2023-08-23T17:23:34.896Z,1.90
2023-08-23T17:26:01.872Z,2.58
2023-08-23T17:28:28.461Z,4.77
2023-08-23T17:30:55.098Z,1.98
2023-08-23T17:33:21.891Z,1.90
2023-08-23T17:35:48.703Z,2.05
2023-08-23T17:38:15.341Z,2.00
2023-08-23T17:40:41.974Z,1.97
2023-08-23T17:43:09.332Z,1.98
2023-08-23T17:45:39.355Z,1.85
2023-08-23T17:48:06.377Z,2.47
2023-08-23T17:50:33.036Z,2.55
2023-08-23T17:53:00.309Z,2.50
2023-08-23T17:55:26.985Z,2.80
2023-08-23T17:57:53.595Z,2.05
2023-08-23T18:00:21.312Z,2.30
2023-08-23T18:02:48.435Z,2.00
2023-08-23T18:05:15.495Z,1.80
2023-08-23T18:07:42.253Z,1.88
2023-08-23T18:10:09.750Z,1.92
2023-08-23T18:12:36.989Z,2.20
2023-08-23T18:15:04.394Z,2.00
2023-08-23T18:17:31.154Z,1.97
2023-08-23T18:19:58.898Z,1.98
2023-08-23T18:22:25.625Z,2.05
2023-08-23T18:24:52.279Z,1.98
2023-08-23T18:27:18.913Z,2.40
2023-08-23T18:29:45.588Z,2.13
2023-08-23T18:32:16.019Z,2.80
2023-08-23T18:34:42.658Z,2.55
2023-08-23T18:37:09.324Z,2.30
2023-08-23T18:39:36.759Z,2.83
2023-08-23T18:42:03.691Z,5.30
2023-08-23T18:44:32.076Z,3.78
2023-08-23T18:46:58.929Z,3.40
2023-08-23T18:49:25.521Z,2.67
2023-08-23T18:51:52.140Z,3.10
2023-08-23T18:54:18.750Z,3.10
2023-08-23T18:56:45.319Z,2.78
2023-08-23T18:59:13.162Z,3.25
2023-08-23T19:01:40.010Z,2.80
2023-08-23T19:04:06.715Z,2.90
2023-08-23T19:06:33.333Z,2.63
2023-08-23T19:09:00.283Z,2.58
2023-08-23T19:11:26.856Z,2.47
2023-08-23T19:13:53.458Z,2.50
2023-08-23T19:16:20.247Z,2.67
2023-08-23T19:18:47.061Z,2.70
2023-08-23T19:21:13.808Z,2.47
2023-08-23T19:23:40.475Z,2.40
2023-08-23T19:26:09.196Z,2.75
2023-08-23T19:28:35.853Z,2.70
2023-08-23T19:31:02.451Z,3.07
2023-08-23T19:33:29.422Z,3.00
2023-08-23T19:35:56.794Z,3.03
2023-08-23T19:38:23.553Z,3.50
2023-08-23T19:40:51.314Z,4.45
2023-08-23T19:43:18.042Z,4.70
2023-08-23T19:45:44.913Z,3.60
2023-08-23T19:48:30.976Z,3.72
2023-08-23T19:50:58.446Z,4.30
2023-08-23T19:53:25.079Z,4.60
2023-08-23T19:55:51.673Z,3.70
2023-08-23T19:58:19.924Z,3.90
2023-08-23T20:00:46.860Z,3.17
2023-08-23T20:03:13.647Z,3.47
2023-08-23T20:05:45.210Z,4.10
2023-08-23T20:08:12.624Z,4.10
2023-08-23T20:10:39.262Z,3.20
2023-08-23T20:13:06.249Z,3.60
2023-08-23T20:15:32.805Z,3.78
2023-08-23T20:17:59.474Z,3.20
2023-08-23T20:20:26.164Z,3.50
2023-08-23T20:22:52.829Z,3.67
2023-08-23T20:25:19.951Z,3.15
2023-08-23T20:27:46.594Z,3.20
2023-08-23T20:30:13.403Z,3.50
2023-08-23T20:32:40.082Z,3.40
2023-08-23T20:35:07.906Z,4.43
2023-08-23T20:37:34.941Z,3.53
2023-08-23T20:40:01.559Z,3.38
2023-08-23T20:42:28.197Z,3.60
2023-08-23T20:44:54.800Z,3.73
2023-08-23T20:47:21.384Z,3.60
2023-08-23T20:49:48.118Z,3.50
2023-08-23T20:52:14.728Z,3.55
2023-08-23T20:54:41.434Z,3.10
2023-08-23T20:57:08.117Z,2.87
2023-08-23T20:59:34.754Z,2.90
2023-08-23T21:02:01.403Z,2.95
2023-08-23T21:04:28.989Z,2.90
2023-08-23T21:06:55.601Z,3.00
2023-08-23T21:09:22.173Z,3.30
2023-08-23T21:11:48.769Z,2.88
2023-08-23T21:14:15.472Z,2.72
2023-08-23T21:16:42.119Z,3.15
2023-08-23T21:19:08.784Z,3.10
2023-08-23T21:21:35.405Z,2.83
2023-08-23T21:24:02.053Z,3.13
2023-08-23T21:26:30.301Z,3.20
2023-08-23T21:28:58.329Z,3.50
2023-08-23T21:31:24.995Z,3.05
2023-08-23T21:33:51.803Z,3.07
2023-08-23T21:36:19.089Z,2.78
2023-08-23T21:38:46.232Z,3.35
2023-08-23T21:41:13.380Z,3.00
2023-08-23T21:43:40.122Z,3.10
2023-08-23T21:46:06.917Z,3.20
2023-08-23T21:48:33.924Z,3.38
2023-08-23T21:51:00.672Z,3.30
2023-08-23T21:53:27.264Z,2.92
2023-08-23T21:55:56.182Z,3.47
2023-08-23T21:58:24.752Z,3.40
